sensor_id;sensor_type;location;lat;lon;timestamp;temperature;humidity
50738;DHT22;36703;48.154;17.126;2023-05-19T00:02:49;16.40;53.60
50738;DHT22;36703;48.154;17.126;2023-05-19T00:06:53;16.40;53.70
50738;DHT22;36703;48.154;17.126;2023-05-19T00:10:55;16.40;53.70
50738;DHT22;36703;48.154;17.126;2023-05-19T00:14:56;16.40;53.70
50738;DHT22;36703;48.154;17.126;2023-05-19T00:18:59;16.40;53.80
50738;DHT22;36703;48.154;17.126;2023-05-19T00:23:02;16.30;53.80
50738;DHT22;36703;48.154;17.126;2023-05-19T00:27:04;16.40;53.80
50738;DHT22;36703;48.154;17.126;2023-05-19T00:31:05;16.40;54.30
50738;DHT22;36703;48.154;17.126;2023-05-19T00:35:07;16.40;53.80
50738;DHT22;36703;48.154;17.126;2023-05-19T00:39:09;16.30;54.00
50738;DHT22;36703;48.154;17.126;2023-05-19T00:43:11;16.30;54.00
50738;DHT22;36703;48.154;17.126;2023-05-19T00:47:13;16.30;54.10
50738;DHT22;36703;48.154;17.126;2023-05-19T00:51:15;16.30;54.10
50738;DHT22;36703;48.154;17.126;2023-05-19T00:55:18;16.30;54.20
50738;DHT22;36703;48.154;17.126;2023-05-19T00:59:20;16.20;54.10
50738;DHT22;36703;48.154;17.126;2023-05-19T01:03:22;16.30;54.20
50738;DHT22;36703;48.154;17.126;2023-05-19T01:07:24;16.30;54.20
50738;DHT22;36703;48.154;17.126;2023-05-19T01:11:25;16.30;54.20
50738;DHT22;36703;48.154;17.126;2023-05-19T01:15:27;16.30;54.20
50738;DHT22;36703;48.154;17.126;2023-05-19T01:33:31;16.30;54.10
50738;DHT22;36703;48.154;17.126;2023-05-19T01:37:33;16.30;54.10
50738;DHT22;36703;48.154;17.126;2023-05-19T01:41:36;16.30;54.00
50738;DHT22;36703;48.154;17.126;2023-05-19T01:45:39;16.20;54.10
50738;DHT22;36703;48.154;17.126;2023-05-19T01:49:41;16.10;54.20
50738;DHT22;36703;48.154;17.126;2023-05-19T01:53:42;16.00;54.40
50738;DHT22;36703;48.154;17.126;2023-05-19T01:57:54;16.10;54.50
50738;DHT22;36703;48.154;17.126;2023-05-19T02:07:34;15.90;54.70
50738;DHT22;36703;48.154;17.126;2023-05-19T02:11:54;15.90;54.60
50738;DHT22;36703;48.154;17.126;2023-05-19T02:16:04;15.90;54.60
50738;DHT22;36703;48.154;17.126;2023-05-19T02:20:07;15.90;54.60
50738;DHT22;36703;48.154;17.126;2023-05-19T02:24:09;15.80;54.60
50738;DHT22;36703;48.154;17.126;2023-05-19T02:28:12;15.80;54.80
50738;DHT22;36703;48.154;17.126;2023-05-19T02:32:14;15.70;55.00
50738;DHT22;36703;48.154;17.126;2023-05-19T02:36:16;15.70;55.50
50738;DHT22;36703;48.154;17.126;2023-05-19T02:40:18;15.60;55.20
50738;DHT22;36703;48.154;17.126;2023-05-19T02:44:20;15.60;55.30
50738;DHT22;36703;48.154;17.126;2023-05-19T02:48:22;15.70;55.40
50738;DHT22;36703;48.154;17.126;2023-05-19T02:52:23;15.70;55.40
50738;DHT22;36703;48.154;17.126;2023-05-19T02:56:25;15.70;56.00
50738;DHT22;36703;48.154;17.126;2023-05-19T03:00:28;15.80;55.40
50738;DHT22;36703;48.154;17.126;2023-05-19T03:04:29;15.90;55.40
50738;DHT22;36703;48.154;17.126;2023-05-19T03:08:31;15.90;55.40
50738;DHT22;36703;48.154;17.126;2023-05-19T03:12:33;15.90;55.30
50738;DHT22;36703;48.154;17.126;2023-05-19T03:16:34;16.00;55.30
50738;DHT22;36703;48.154;17.126;2023-05-19T03:20:36;16.00;55.10
50738;DHT22;36703;48.154;17.126;2023-05-19T03:24:38;16.10;55.20
50738;DHT22;36703;48.154;17.126;2023-05-19T03:28:39;16.10;55.20
50738;DHT22;36703;48.154;17.126;2023-05-19T03:32:41;16.10;55.10
50738;DHT22;36703;48.154;17.126;2023-05-19T03:36:43;16.10;55.10
50738;DHT22;36703;48.154;17.126;2023-05-19T03:40:49;16.20;55.10
50738;DHT22;36703;48.154;17.126;2023-05-19T03:44:51;16.10;55.10
50738;DHT22;36703;48.154;17.126;2023-05-19T03:48:53;16.10;55.10
50738;DHT22;36703;48.154;17.126;2023-05-19T03:53:10;16.00;55.00
50738;DHT22;36703;48.154;17.126;2023-05-19T03:57:15;16.00;55.10
50738;DHT22;36703;48.154;17.126;2023-05-19T04:01:16;15.90;55.20
50738;DHT22;36703;48.154;17.126;2023-05-19T04:05:18;16.00;55.30
50738;DHT22;36703;48.154;17.126;2023-05-19T04:09:20;16.00;55.10
50738;DHT22;36703;48.154;17.126;2023-05-19T04:13:24;16.00;55.10
50738;DHT22;36703;48.154;17.126;2023-05-19T04:17:26;16.00;55.10
50738;DHT22;36703;48.154;17.126;2023-05-19T04:21:29;16.00;55.00
50738;DHT22;36703;48.154;17.126;2023-05-19T04:25:31;15.90;55.10
50738;DHT22;36703;48.154;17.126;2023-05-19T04:29:34;16.00;55.30
50738;DHT22;36703;48.154;17.126;2023-05-19T04:33:36;16.10;55.20
50738;DHT22;36703;48.154;17.126;2023-05-19T04:37:38;16.10;55.20
50738;DHT22;36703;48.154;17.126;2023-05-19T04:41:42;16.20;55.10
50738;DHT22;36703;48.154;17.126;2023-05-19T04:45:45;16.10;55.00
50738;DHT22;36703;48.154;17.126;2023-05-19T04:49:50;16.10;55.20
50738;DHT22;36703;48.154;17.126;2023-05-19T04:53:56;15.80;55.00
50738;DHT22;36703;48.154;17.126;2023-05-19T04:57:58;16.10;55.20
50738;DHT22;36703;48.154;17.126;2023-05-19T05:01:59;16.10;55.20
50738;DHT22;36703;48.154;17.126;2023-05-19T05:06:04;16.10;55.30
50738;DHT22;36703;48.154;17.126;2023-05-19T05:10:07;16.00;55.20
50738;DHT22;36703;48.154;17.126;2023-05-19T05:14:09;16.00;55.40
50738;DHT22;36703;48.154;17.126;2023-05-19T05:18:12;16.00;56.00
50738;DHT22;36703;48.154;17.126;2023-05-19T05:22:15;16.00;55.40
50738;DHT22;36703;48.154;17.126;2023-05-19T05:26:18;15.90;55.50
50738;DHT22;36703;48.154;17.126;2023-05-19T05:30:24;16.00;55.70
50738;DHT22;36703;48.154;17.126;2023-05-19T05:34:27;16.10;55.70
50738;DHT22;36703;48.154;17.126;2023-05-19T05:38:30;16.20;55.60
50738;DHT22;36703;48.154;17.126;2023-05-19T05:42:32;16.30;55.40
50738;DHT22;36703;48.154;17.126;2023-05-19T05:46:33;16.30;55.40
50738;DHT22;36703;48.154;17.126;2023-05-19T05:50:35;16.30;55.40
50738;DHT22;36703;48.154;17.126;2023-05-19T05:54:38;16.30;55.50
50738;DHT22;36703;48.154;17.126;2023-05-19T05:58:40;16.30;55.60
50738;DHT22;36703;48.154;17.126;2023-05-19T06:02:44;16.30;55.40
50738;DHT22;36703;48.154;17.126;2023-05-19T06:06:47;16.30;55.30
50738;DHT22;36703;48.154;17.126;2023-05-19T06:10:53;16.30;55.40
50738;DHT22;36703;48.154;17.126;2023-05-19T06:14:56;16.30;55.60
50738;DHT22;36703;48.154;17.126;2023-05-19T06:19:17;16.20;55.70
50738;DHT22;36703;48.154;17.126;2023-05-19T06:23:20;16.10;55.80
50738;DHT22;36703;48.154;17.126;2023-05-19T06:27:22;16.00;55.90
50738;DHT22;36703;48.154;17.126;2023-05-19T06:31:26;16.00;56.00
50738;DHT22;36703;48.154;17.126;2023-05-19T06:35:30;16.10;56.20
50738;DHT22;36703;48.154;17.126;2023-05-19T06:39:32;16.10;56.30
50738;DHT22;36703;48.154;17.126;2023-05-19T06:43:37;16.20;56.50
50738;DHT22;36703;48.154;17.126;2023-05-19T06:47:38;16.30;56.40
50738;DHT22;36703;48.154;17.126;2023-05-19T06:51:43;16.50;56.30
50738;DHT22;36703;48.154;17.126;2023-05-19T06:55:46;16.70;56.10
50738;DHT22;36703;48.154;17.126;2023-05-19T06:59:53;16.80;56.00
50738;DHT22;36703;48.154;17.126;2023-05-19T07:03:54;17.00;55.90
50738;DHT22;36703;48.154;17.126;2023-05-19T07:07:57;17.00;56.00
50738;DHT22;36703;48.154;17.126;2023-05-19T07:12:02;17.20;55.70
50738;DHT22;36703;48.154;17.126;2023-05-19T07:16:04;17.20;55.70
50738;DHT22;36703;48.154;17.126;2023-05-19T07:20:06;17.30;55.80
50738;DHT22;36703;48.154;17.126;2023-05-19T07:24:10;17.30;55.80
50738;DHT22;36703;48.154;17.126;2023-05-19T07:28:12;17.40;55.90
50738;DHT22;36703;48.154;17.126;2023-05-19T07:32:13;17.40;55.90
50738;DHT22;36703;48.154;17.126;2023-05-19T07:36:15;17.40;55.90
50738;DHT22;36703;48.154;17.126;2023-05-19T07:40:17;17.60;56.00
50738;DHT22;36703;48.154;17.126;2023-05-19T07:44:18;17.60;56.20
50738;DHT22;36703;48.154;17.126;2023-05-19T07:48:21;17.80;56.60
50738;DHT22;36703;48.154;17.126;2023-05-19T07:52:24;17.50;56.60
50738;DHT22;36703;48.154;17.126;2023-05-19T07:56:26;17.50;56.80
50738;DHT22;36703;48.154;17.126;2023-05-19T08:00:27;17.50;57.00
50738;DHT22;36703;48.154;17.126;2023-05-19T08:04:29;17.60;57.00
50738;DHT22;36703;48.154;17.126;2023-05-19T08:08:30;17.60;57.00
50738;DHT22;36703;48.154;17.126;2023-05-19T08:12:33;17.70;57.10
50738;DHT22;36703;48.154;17.126;2023-05-19T08:16:36;17.80;57.10
50738;DHT22;36703;48.154;17.126;2023-05-19T08:20:37;17.70;57.00
50738;DHT22;36703;48.154;17.126;2023-05-19T08:24:39;17.80;57.00
50738;DHT22;36703;48.154;17.126;2023-05-19T08:28:43;17.70;57.10
50738;DHT22;36703;48.154;17.126;2023-05-19T08:32:44;17.80;57.20
50738;DHT22;36703;48.154;17.126;2023-05-19T08:36:46;17.80;57.10
50738;DHT22;36703;48.154;17.126;2023-05-19T08:40:48;17.80;57.10
50738;DHT22;36703;48.154;17.126;2023-05-19T08:44:49;17.80;57.10
50738;DHT22;36703;48.154;17.126;2023-05-19T08:48:59;17.80;57.20
50738;DHT22;36703;48.154;17.126;2023-05-19T08:53:09;17.80;57.20
50738;DHT22;36703;48.154;17.126;2023-05-19T08:57:13;17.80;57.30
50738;DHT22;36703;48.154;17.126;2023-05-19T09:01:15;17.70;57.40
50738;DHT22;36703;48.154;17.126;2023-05-19T09:05:17;18.00;57.50
50738;DHT22;36703;48.154;17.126;2023-05-19T09:09:19;18.00;58.00
50738;DHT22;36703;48.154;17.126;2023-05-19T09:13:21;17.90;57.50
50738;DHT22;36703;48.154;17.126;2023-05-19T09:17:22;18.00;57.60
50738;DHT22;36703;48.154;17.126;2023-05-19T09:21:31;18.00;57.60
50738;DHT22;36703;48.154;17.126;2023-05-19T09:25:33;18.10;57.70
50738;DHT22;36703;48.154;17.126;2023-05-19T09:29:34;18.10;57.70
50738;DHT22;36703;48.154;17.126;2023-05-19T09:33:38;18.20;57.60
50738;DHT22;36703;48.154;17.126;2023-05-19T09:37:41;18.30;57.60
50738;DHT22;36703;48.154;17.126;2023-05-19T09:41:43;18.30;57.50
50738;DHT22;36703;48.154;17.126;2023-05-19T09:45:45;18.40;57.50
50738;DHT22;36703;48.154;17.126;2023-05-19T09:49:47;18.50;57.40
50738;DHT22;36703;48.154;17.126;2023-05-19T09:53:49;18.60;57.40
50738;DHT22;36703;48.154;17.126;2023-05-19T09:57:50;18.60;57.20
50738;DHT22;36703;48.154;17.126;2023-05-19T10:01:57;18.60;57.20
50738;DHT22;36703;48.154;17.126;2023-05-19T10:06:05;18.60;57.40
50738;DHT22;36703;48.154;17.126;2023-05-19T10:10:11;18.70;57.40
50738;DHT22;36703;48.154;17.126;2023-05-19T10:14:14;18.90;57.20
50738;DHT22;36703;48.154;17.126;2023-05-19T10:18:16;19.00;56.80
50738;DHT22;36703;48.154;17.126;2023-05-19T10:22:18;19.20;56.80
50738;DHT22;36703;48.154;17.126;2023-05-19T10:26:21;19.50;56.50
50738;DHT22;36703;48.154;17.126;2023-05-19T10:30:33;19.70;56.20
50738;DHT22;36703;48.154;17.126;2023-05-19T10:35:14;20.10;56.00
50738;DHT22;36703;48.154;17.126;2023-05-19T10:39:24;20.40;55.30
50738;DHT22;36703;48.154;17.126;2023-05-19T10:43:48;20.40;54.90
50738;DHT22;36703;48.154;17.126;2023-05-19T10:47:53;20.40;54.70
50738;DHT22;36703;48.154;17.126;2023-05-19T10:51:55;20.40;54.60
50738;DHT22;36703;48.154;17.126;2023-05-19T10:55:57;20.50;54.50
50738;DHT22;36703;48.154;17.126;2023-05-19T11:00:04;20.60;54.40
50738;DHT22;36703;48.154;17.126;2023-05-19T11:04:45;20.80;54.10
50738;DHT22;36703;48.154;17.126;2023-05-19T11:09:12;20.90;53.90
50738;DHT22;36703;48.154;17.126;2023-05-19T11:13:19;21.10;53.50
50738;DHT22;36703;48.154;17.126;2023-05-19T11:17:23;21.10;53.10
50738;DHT22;36703;48.154;17.126;2023-05-19T11:21:48;21.00;53.00
50738;DHT22;36703;48.154;17.126;2023-05-19T11:25:52;20.80;53.00
50738;DHT22;36703;48.154;17.126;2023-05-19T11:29:56;20.90;53.20
50738;DHT22;36703;48.154;17.126;2023-05-19T11:34:07;21.20;52.80
50738;DHT22;36703;48.154;17.126;2023-05-19T11:38:10;21.20;52.60
50738;DHT22;36703;48.154;17.126;2023-05-19T11:42:12;21.40;52.40
50738;DHT22;36703;48.154;17.126;2023-05-19T11:46:13;21.50;52.20
50738;DHT22;36703;48.154;17.126;2023-05-19T11:50:15;21.70;52.00
50738;DHT22;36703;48.154;17.126;2023-05-19T11:54:17;21.80;51.80
50738;DHT22;36703;48.154;17.126;2023-05-19T11:58:24;21.80;51.60
50738;DHT22;36703;48.154;17.126;2023-05-19T12:02:27;21.90;51.50
50738;DHT22;36703;48.154;17.126;2023-05-19T12:06:30;21.90;51.20
50738;DHT22;36703;48.154;17.126;2023-05-19T12:10:33;22.00;51.00
50738;DHT22;36703;48.154;17.126;2023-05-19T12:14:36;22.00;50.90
50738;DHT22;36703;48.154;17.126;2023-05-19T12:18:38;21.90;50.70
50738;DHT22;36703;48.154;17.126;2023-05-19T12:22:43;21.80;50.90
50738;DHT22;36703;48.154;17.126;2023-05-19T12:26:44;21.90;51.00
50738;DHT22;36703;48.154;17.126;2023-05-19T12:30:49;22.00;50.90
50738;DHT22;36703;48.154;17.126;2023-05-19T12:34:55;22.10;50.90
50738;DHT22;36703;48.154;17.126;2023-05-19T12:38:57;22.10;50.70
50738;DHT22;36703;48.154;17.126;2023-05-19T12:42:59;22.00;50.70
50738;DHT22;36703;48.154;17.126;2023-05-19T12:47:03;21.90;50.90
50738;DHT22;36703;48.154;17.126;2023-05-19T12:51:06;21.80;50.90
50738;DHT22;36703;48.154;17.126;2023-05-19T12:55:08;21.80;51.00
50738;DHT22;36703;48.154;17.126;2023-05-19T12:59:20;21.90;51.00
50738;DHT22;36703;48.154;17.126;2023-05-19T13:03:25;21.90;50.90
50738;DHT22;36703;48.154;17.126;2023-05-19T13:07:27;22.10;50.80
50738;DHT22;36703;48.154;17.126;2023-05-19T13:11:28;22.20;50.40
50738;DHT22;36703;48.154;17.126;2023-05-19T13:15:31;22.30;50.00
50738;DHT22;36703;48.154;17.126;2023-05-19T13:19:36;22.30;49.80
50738;DHT22;36703;48.154;17.126;2023-05-19T13:23:38;22.30;49.80
50738;DHT22;36703;48.154;17.126;2023-05-19T13:27:39;22.30;49.80
50738;DHT22;36703;48.154;17.126;2023-05-19T13:31:41;22.40;49.80
50738;DHT22;36703;48.154;17.126;2023-05-19T13:35:43;22.40;49.70
50738;DHT22;36703;48.154;17.126;2023-05-19T13:39:44;22.40;49.60
50738;DHT22;36703;48.154;17.126;2023-05-19T13:43:46;22.40;49.60
50738;DHT22;36703;48.154;17.126;2023-05-19T13:47:48;22.40;49.60
50738;DHT22;36703;48.154;17.126;2023-05-19T13:51:49;22.40;49.70
50738;DHT22;36703;48.154;17.126;2023-05-19T13:55:51;22.40;49.70
50738;DHT22;36703;48.154;17.126;2023-05-19T13:59:55;22.40;49.70
50738;DHT22;36703;48.154;17.126;2023-05-19T14:03:57;22.40;49.60
50738;DHT22;36703;48.154;17.126;2023-05-19T14:07:58;22.40;49.40
50738;DHT22;36703;48.154;17.126;2023-05-19T14:12:01;22.40;49.40
50738;DHT22;36703;48.154;17.126;2023-05-19T14:16:03;22.50;49.30
50738;DHT22;36703;48.154;17.126;2023-05-19T14:20:05;22.60;49.20
50738;DHT22;36703;48.154;17.126;2023-05-19T14:24:07;22.60;49.00
50738;DHT22;36703;48.154;17.126;2023-05-19T14:28:12;22.60;49.00
50738;DHT22;36703;48.154;17.126;2023-05-19T14:32:13;22.60;49.00
50738;DHT22;36703;48.154;17.126;2023-05-19T14:36:16;22.70;49.10
50738;DHT22;36703;48.154;17.126;2023-05-19T14:40:18;22.60;48.90
50738;DHT22;36703;48.154;17.126;2023-05-19T14:44:19;22.60;49.00
50738;DHT22;36703;48.154;17.126;2023-05-19T14:48:21;22.50;49.20
50738;DHT22;36703;48.154;17.126;2023-05-19T14:52:23;22.50;49.20
50738;DHT22;36703;48.154;17.126;2023-05-19T14:56:26;22.50;49.30
50738;DHT22;36703;48.154;17.126;2023-05-19T15:00:27;22.40;49.20
50738;DHT22;36703;48.154;17.126;2023-05-19T15:04:29;22.40;49.30
50738;DHT22;36703;48.154;17.126;2023-05-19T15:08:31;22.50;49.30
50738;DHT22;36703;48.154;17.126;2023-05-19T15:12:33;22.50;49.30
50738;DHT22;36703;48.154;17.126;2023-05-19T15:16:34;22.50;49.30
50738;DHT22;36703;48.154;17.126;2023-05-19T15:20:36;22.50;49.30
50738;DHT22;36703;48.154;17.126;2023-05-19T15:24:37;22.50;49.30
50738;DHT22;36703;48.154;17.126;2023-05-19T15:28:39;22.50;49.30
50738;DHT22;36703;48.154;17.126;2023-05-19T15:32:41;22.50;49.30
50738;DHT22;36703;48.154;17.126;2023-05-19T15:36:42;22.50;49.40
50738;DHT22;36703;48.154;17.126;2023-05-19T15:40:44;22.50;49.40
50738;DHT22;36703;48.154;17.126;2023-05-19T15:44:46;22.40;49.50
50738;DHT22;36703;48.154;17.126;2023-05-19T15:48:47;22.40;49.50
50738;DHT22;36703;48.154;17.126;2023-05-19T15:52:49;22.40;49.50
50738;DHT22;36703;48.154;17.126;2023-05-19T15:56:50;22.40;49.60
50738;DHT22;36703;48.154;17.126;2023-05-19T16:00:52;22.40;49.60
50738;DHT22;36703;48.154;17.126;2023-05-19T16:04:54;22.40;49.60
50738;DHT22;36703;48.154;17.126;2023-05-19T16:08:55;22.30;49.50
50738;DHT22;36703;48.154;17.126;2023-05-19T16:12:57;22.30;49.50
50738;DHT22;36703;48.154;17.126;2023-05-19T16:17:04;22.40;49.60
50738;DHT22;36703;48.154;17.126;2023-05-19T16:21:11;22.40;49.40
50738;DHT22;36703;48.154;17.126;2023-05-19T16:25:13;22.40;49.40
50738;DHT22;36703;48.154;17.126;2023-05-19T16:29:14;22.40;49.40
50738;DHT22;36703;48.154;17.126;2023-05-19T16:33:16;22.40;49.50
50738;DHT22;36703;48.154;17.126;2023-05-19T16:37:18;22.30;49.60
50738;DHT22;36703;48.154;17.126;2023-05-19T16:41:19;22.30;49.50
50738;DHT22;36703;48.154;17.126;2023-05-19T16:45:21;22.20;49.50
50738;DHT22;36703;48.154;17.126;2023-05-19T16:49:23;22.20;49.30
50738;DHT22;36703;48.154;17.126;2023-05-19T16:53:24;22.20;49.40
50738;DHT22;36703;48.154;17.126;2023-05-19T16:57:26;22.10;49.30
50738;DHT22;36703;48.154;17.126;2023-05-19T17:01:27;22.10;49.40
50738;DHT22;36703;48.154;17.126;2023-05-19T17:05:29;22.10;49.30
50738;DHT22;36703;48.154;17.126;2023-05-19T17:09:31;22.10;49.50
50738;DHT22;36703;48.154;17.126;2023-05-19T17:13:33;22.10;49.60
50738;DHT22;36703;48.154;17.126;2023-05-19T17:17:36;22.10;49.60
50738;DHT22;36703;48.154;17.126;2023-05-19T17:21:38;22.10;49.70
50738;DHT22;36703;48.154;17.126;2023-05-19T17:25:40;22.10;49.90
50738;DHT22;36703;48.154;17.126;2023-05-19T17:29:41;22.00;50.00
50738;DHT22;36703;48.154;17.126;2023-05-19T17:33:43;22.00;50.20
50738;DHT22;36703;48.154;17.126;2023-05-19T17:37:44;21.90;50.30
50738;DHT22;36703;48.154;17.126;2023-05-19T17:41:46;22.00;50.40
50738;DHT22;36703;48.154;17.126;2023-05-19T17:45:48;22.00;50.60
50738;DHT22;36703;48.154;17.126;2023-05-19T17:49:49;22.00;50.60
50738;DHT22;36703;48.154;17.126;2023-05-19T17:53:53;21.90;50.50
50738;DHT22;36703;48.154;17.126;2023-05-19T17:57:55;21.90;50.40
50738;DHT22;36703;48.154;17.126;2023-05-19T18:01:57;21.90;50.40
50738;DHT22;36703;48.154;17.126;2023-05-19T18:05:59;21.90;50.40
50738;DHT22;36703;48.154;17.126;2023-05-19T18:10:02;21.80;50.50
50738;DHT22;36703;48.154;17.126;2023-05-19T18:14:05;21.80;50.70
50738;DHT22;36703;48.154;17.126;2023-05-19T18:18:06;21.80;50.80
50738;DHT22;36703;48.154;17.126;2023-05-19T18:22:10;21.80;50.90
50738;DHT22;36703;48.154;17.126;2023-05-19T18:26:14;21.80;51.10
50738;DHT22;36703;48.154;17.126;2023-05-19T18:30:16;21.70;51.30
50738;DHT22;36703;48.154;17.126;2023-05-19T18:34:18;21.70;51.40
50738;DHT22;36703;48.154;17.126;2023-05-19T18:38:19;21.70;51.50
50738;DHT22;36703;48.154;17.126;2023-05-19T18:42:23;21.60;51.60
50738;DHT22;36703;48.154;17.126;2023-05-19T18:46:25;21.70;51.70
50738;DHT22;36703;48.154;17.126;2023-05-19T18:50:26;21.60;51.80
50738;DHT22;36703;48.154;17.126;2023-05-19T18:54:28;21.60;52.00
50738;DHT22;36703;48.154;17.126;2023-05-19T18:58:29;21.60;52.10
50738;DHT22;36703;48.154;17.126;2023-05-19T19:02:31;21.50;52.50
50738;DHT22;36703;48.154;17.126;2023-05-19T19:06:33;21.60;52.20
50738;DHT22;36703;48.154;17.126;2023-05-19T19:10:34;21.50;52.20
50738;DHT22;36703;48.154;17.126;2023-05-19T19:14:39;21.50;52.30
50738;DHT22;36703;48.154;17.126;2023-05-19T19:18:41;21.50;52.50
50738;DHT22;36703;48.154;17.126;2023-05-19T19:22:42;21.50;52.50
50738;DHT22;36703;48.154;17.126;2023-05-19T19:26:44;21.40;53.90
50738;DHT22;36703;48.154;17.126;2023-05-19T19:30:46;21.40;52.80
50738;DHT22;36703;48.154;17.126;2023-05-19T19:34:48;21.30;52.80
50738;DHT22;36703;48.154;17.126;2023-05-19T19:38:49;21.30;53.10
50738;DHT22;36703;48.154;17.126;2023-05-19T19:42:51;21.30;53.30
50738;DHT22;36703;48.154;17.126;2023-05-19T19:46:52;21.30;53.30
50738;DHT22;36703;48.154;17.126;2023-05-19T19:50:55;21.30;53.30
50738;DHT22;36703;48.154;17.126;2023-05-19T19:54:57;21.30;53.40
50738;DHT22;36703;48.154;17.126;2023-05-19T19:58:58;21.30;53.40
50738;DHT22;36703;48.154;17.126;2023-05-19T20:03:00;21.30;53.40
50738;DHT22;36703;48.154;17.126;2023-05-19T20:07:01;21.30;53.40
50738;DHT22;36703;48.154;17.126;2023-05-19T20:11:03;21.30;53.50
50738;DHT22;36703;48.154;17.126;2023-05-19T20:15:05;21.30;53.70
50738;DHT22;36703;48.154;17.126;2023-05-19T20:19:07;21.30;53.70
50738;DHT22;36703;48.154;17.126;2023-05-19T20:23:09;21.30;53.80
50738;DHT22;36703;48.154;17.126;2023-05-19T20:27:10;21.30;54.50
50738;DHT22;36703;48.154;17.126;2023-05-19T20:31:12;21.20;53.90
50738;DHT22;36703;48.154;17.126;2023-05-19T20:35:14;21.20;54.00
50738;DHT22;36703;48.154;17.126;2023-05-19T20:39:16;21.20;54.20
50738;DHT22;36703;48.154;17.126;2023-05-19T20:43:17;21.10;54.30
50738;DHT22;36703;48.154;17.126;2023-05-19T20:47:19;21.10;54.40
50738;DHT22;36703;48.154;17.126;2023-05-19T20:51:21;21.10;54.50
50738;DHT22;36703;48.154;17.126;2023-05-19T20:55:25;21.00;54.60
50738;DHT22;36703;48.154;17.126;2023-05-19T20:59:26;21.00;54.70
50738;DHT22;36703;48.154;17.126;2023-05-19T21:03:28;21.00;54.80
50738;DHT22;36703;48.154;17.126;2023-05-19T21:07:30;20.90;54.80
50738;DHT22;36703;48.154;17.126;2023-05-19T21:11:32;20.90;54.90
50738;DHT22;36703;48.154;17.126;2023-05-19T21:15:34;20.90;55.00
50738;DHT22;36703;48.154;17.126;2023-05-19T21:19:36;20.80;55.10
50738;DHT22;36703;48.154;17.126;2023-05-19T21:23:37;20.80;55.20
50738;DHT22;36703;48.154;17.126;2023-05-19T21:27:39;20.70;55.30
50738;DHT22;36703;48.154;17.126;2023-05-19T21:31:41;20.60;55.40
50738;DHT22;36703;48.154;17.126;2023-05-19T21:35:43;20.50;55.50
50738;DHT22;36703;48.154;17.126;2023-05-19T21:39:45;20.50;55.50
50738;DHT22;36703;48.154;17.126;2023-05-19T21:43:47;20.50;55.50
50738;DHT22;36703;48.154;17.126;2023-05-19T21:47:48;20.50;55.40
50738;DHT22;36703;48.154;17.126;2023-05-19T21:51:50;20.40;55.40
50738;DHT22;36703;48.154;17.126;2023-05-19T21:55:52;20.40;55.30
50738;DHT22;36703;48.154;17.126;2023-05-19T21:59:53;20.40;55.30
50738;DHT22;36703;48.154;17.126;2023-05-19T22:03:55;20.40;55.30
50738;DHT22;36703;48.154;17.126;2023-05-19T22:07:56;20.40;55.30
50738;DHT22;36703;48.154;17.126;2023-05-19T22:11:58;20.30;55.20
50738;DHT22;36703;48.154;17.126;2023-05-19T22:15:59;20.20;55.40
50738;DHT22;36703;48.154;17.126;2023-05-19T22:20:03;20.20;55.40
50738;DHT22;36703;48.154;17.126;2023-05-19T22:24:05;20.10;56.10
50738;DHT22;36703;48.154;17.126;2023-05-19T22:28:07;20.20;55.50
50738;DHT22;36703;48.154;17.126;2023-05-19T22:32:09;20.10;55.40
50738;DHT22;36703;48.154;17.126;2023-05-19T22:36:12;20.10;55.40
50738;DHT22;36703;48.154;17.126;2023-05-19T22:40:16;20.00;55.30
50738;DHT22;36703;48.154;17.126;2023-05-19T22:44:17;20.00;55.20
50738;DHT22;36703;48.154;17.126;2023-05-19T22:48:19;20.00;55.30
50738;DHT22;36703;48.154;17.126;2023-05-19T22:52:21;20.00;55.30
50738;DHT22;36703;48.154;17.126;2023-05-19T22:56:22;20.00;55.30
50738;DHT22;36703;48.154;17.126;2023-05-19T23:00:24;20.00;55.20
50738;DHT22;36703;48.154;17.126;2023-05-19T23:04:26;19.90;55.10
50738;DHT22;36703;48.154;17.126;2023-05-19T23:08:27;19.90;55.00
50738;DHT22;36703;48.154;17.126;2023-05-19T23:12:29;19.80;54.80
50738;DHT22;36703;48.154;17.126;2023-05-19T23:16:30;19.80;54.60
50738;DHT22;36703;48.154;17.126;2023-05-19T23:20:33;19.80;54.70
50738;DHT22;36703;48.154;17.126;2023-05-19T23:24:34;19.80;54.50
50738;DHT22;36703;48.154;17.126;2023-05-19T23:28:36;19.70;54.10
50738;DHT22;36703;48.154;17.126;2023-05-19T23:32:37;19.60;53.90
50738;DHT22;36703;48.154;17.126;2023-05-19T23:36:40;19.50;53.80
50738;DHT22;36703;48.154;17.126;2023-05-19T23:40:42;19.50;53.80
50738;DHT22;36703;48.154;17.126;2023-05-19T23:44:44;19.50;53.80
50738;DHT22;36703;48.154;17.126;2023-05-19T23:48:46;19.50;53.70
50738;DHT22;36703;48.154;17.126;2023-05-19T23:52:47;19.50;54.50
50738;DHT22;36703;48.154;17.126;2023-05-19T23:56:49;19.50;53.80
